KTLH/TLH METAR and TAF weather

Enter ICAO airport designator
Station Type Date Time Source
KTLH METAR 2023/02/05 13:53 UTC NOAA

KTLH 051353Z 09007KT 10SM OVC003 11/10 A3032 RMK AO2 SLP265 T01110100


Station Type Date Time Source
KTLH Decoded METAR 2023/02/05 13:53 UTC NOAA

TALLAHASSEE REGIONAL AIRPORT , FL, United States (KTLH) 30-24N 84-21W 16M
Feb 05, 2023 - 08:53 AM EST / 2023.02.05 1353 UTC
Wind: from the E (090 degrees) at 8 MPH (7 KT):0
Visibility: 10 mile(s):0
Sky conditions: overcast
Temperature: 52.0 F (11.1 C)
Dew Point: 50.0 F (10.0 C)
Relative Humidity: 92%
Pressure (altimeter): 30.32 in. Hg (1026 hPa)
ob: KTLH 051353Z 09007KT 10SM OVC003 11/10 A3032 RMK AO2 SLP265 T01110100
cycle: 14

Station Type Date Time Source
KTLH TAF 2023/02/05 12:22 UTC NOAA

TAF KTLH 051120Z 0512/0612 08006KT P6SM OVC005
FM051600 09005KT P6SM BKN015
FM051900 34005KT P6SM BKN050
FM060300 00000KT P6SM SCT250

Example: see airport list